Time;durP1;ratioP1;P1;durP2;ratioP2;P2;SDS_P1;SDS_P2;PMS_P1;PMS_P2;Temp;Humidity;BMP_temperature;BMP_pressure;BME280_temperature;BME280_humidity;BME280_pressure;Samples;Min_cycle;Max_cycle;Signal;HPM_P1;HPM_P2
2021/07/07 00:01:17;;;;;;;10.00;2.20;;;16.60;99.90;;;;;;5059104;28;20486;-84
2021/07/07 00:03:43;;;;;;;9.27;1.80;;;16.50;99.90;;;;;;5060289;28;21054;-85
2021/07/07 00:06:11;;;;;;;11.00;2.13;;;16.50;99.90;;;;;;5064972;28;20466;-84
2021/07/07 00:08:37;;;;;;;11.60;1.73;;;16.50;99.90;;;;;;5081120;28;20453;-84
2021/07/07 00:11:04;;;;;;;9.30;2.20;;;16.50;99.90;;;;;;5082089;28;20443;-84
2021/07/07 00:13:31;;;;;;;7.90;1.60;;;16.40;99.90;;;;;;5082244;28;20573;-84
2021/07/07 00:16:00;;;;;;;8.10;1.93;;;16.40;99.90;;;;;;5081596;28;20541;-85
2021/07/07 00:18:27;;;;;;;7.67;1.63;;;16.40;99.90;;;;;;5081368;28;20624;-84
2021/07/07 00:20:56;;;;;;;9.37;1.63;;;16.30;99.90;;;;;;5083417;28;20467;-84
2021/07/07 00:23:25;;;;;;;9.63;1.77;;;16.30;99.90;;;;;;5081376;28;20479;-84
2021/07/07 00:25:52;;;;;;;11.10;1.63;;;16.30;99.90;;;;;;5074764;28;20455;-85
2021/07/07 00:28:19;;;;;;;9.90;2.30;;;16.30;99.90;;;;;;5075815;28;20454;-84
2021/07/07 00:30:46;;;;;;;9.40;2.17;;;16.30;99.90;;;;;;5077000;28;20443;-84
2021/07/07 00:33:15;;;;;;;8.30;1.83;;;16.30;99.90;;;;;;5083155;28;20477;-84
2021/07/07 00:35:43;;;;;;;9.80;1.97;;;16.30;99.90;;;;;;5082053;28;20805;-84
2021/07/07 00:38:12;;;;;;;8.23;1.40;;;16.20;99.90;;;;;;5076660;28;20525;-85
2021/07/07 00:40:39;;;;;;;8.17;1.90;;;16.20;99.90;;;;;;5074821;28;20487;-84
2021/07/07 00:43:06;;;;;;;8.00;1.83;;;16.20;99.90;;;;;;5076518;28;20467;-84
2021/07/07 00:45:33;;;;;;;11.27;1.87;;;16.20;99.90;;;;;;5080468;28;20462;-84
2021/07/07 00:48:00;;;;;;;9.27;1.50;;;16.10;99.90;;;;;;5084073;28;21014;-84
2021/07/07 00:50:28;;;;;;;9.97;1.83;;;16.10;99.90;;;;;;5082327;28;20537;-84
2021/07/07 00:52:56;;;;;;;8.67;1.53;;;16.10;99.90;;;;;;5077242;28;20481;-84
2021/07/07 00:55:25;;;;;;;8.70;2.07;;;16.10;99.90;;;;;;5064939;28;20475;-84
2021/07/07 00:57:52;;;;;;;7.70;1.60;;;16.00;99.90;;;;;;5063576;28;20535;-85
2021/07/07 01:00:23;;;;;;;9.10;1.77;;;16.00;99.90;;;;;;5058914;28;20475;-84
2021/07/07 01:02:51;;;;;;;8.40;1.77;;;16.00;99.90;;;;;;5060616;28;20448;-84
2021/07/07 01:05:18;;;;;;;8.90;1.60;;;15.90;99.90;;;;;;5062132;28;21208;-84
2021/07/07 01:07:47;;;;;;;11.67;3.17;;;15.90;99.90;;;;;;5062885;28;20954;-85
2021/07/07 01:10:16;;;;;;;7.53;1.50;;;15.90;99.90;;;;;;5075191;28;20449;-84
2021/07/07 01:12:43;;;;;;;7.63;1.70;;;15.80;99.90;;;;;;5082026;28;20469;-84
2021/07/07 01:15:12;;;;;;;8.60;2.00;;;15.80;99.90;;;;;;5071239;28;20535;-84
2021/07/07 01:17:39;;;;;;;7.70;1.80;;;15.80;99.90;;;;;;5061139;28;20444;-84
2021/07/07 01:20:09;;;;;;;7.50;1.57;;;15.80;99.90;;;;;;5058082;28;20483;-84
2021/07/07 01:22:38;;;;;;;7.40;2.03;;;15.80;99.90;;;;;;5078312;28;20806;-84
2021/07/07 01:25:07;;;;;;;10.20;1.77;;;15.70;99.90;;;;;;5089922;28;20530;-84
2021/07/07 01:27:35;;;;;;;7.50;1.70;;;15.70;99.90;;;;;;5087509;28;20446;-85
2021/07/07 01:30:02;;;;;;;10.33;2.33;;;15.70;99.90;;;;;;5088078;28;20447;-84
2021/07/07 01:32:29;;;;;;;8.73;1.90;;;15.70;99.90;;;;;;5086547;28;20450;-84
2021/07/07 01:34:56;;;;;;;8.30;2.00;;;15.70;99.90;;;;;;5078531;28;20473;-85
2021/07/07 01:37:24;;;;;;;7.40;1.70;;;15.70;99.90;;;;;;5088506;28;20453;-83
2021/07/07 01:39:52;;;;;;;7.70;2.53;;;15.70;99.90;;;;;;5087693;28;20479;-85
2021/07/07 01:42:19;;;;;;;9.83;1.90;;;15.60;99.90;;;;;;5090687;28;20446;-84
2021/07/07 01:44:46;;;;;;;10.63;1.93;;;15.60;99.90;;;;;;5086386;28;20538;-84
2021/07/07 01:47:13;;;;;;;8.40;2.23;;;15.60;99.90;;;;;;5092707;28;20488;-84
2021/07/07 01:49:40;;;;;;;8.63;1.73;;;15.60;99.90;;;;;;5092364;28;20442;-85
2021/07/07 01:52:07;;;;;;;9.10;2.30;;;15.60;99.90;;;;;;5102304;28;20453;-84
2021/07/07 01:54:34;;;;;;;8.77;2.17;;;15.60;99.90;;;;;;5088861;28;20467;-84
2021/07/07 01:57:02;;;;;;;8.70;2.50;;;15.60;99.90;;;;;;5080093;28;20458;-84
2021/07/07 01:59:29;;;;;;;7.63;1.60;;;15.60;99.90;;;;;;5089131;28;20447;-85
2021/07/07 02:01:56;;;;;;;9.60;2.20;;;15.60;99.90;;;;;;5093608;28;21005;-84
2021/07/07 02:04:22;;;;;;;8.13;1.83;;;15.60;99.90;;;;;;5093835;28;20466;-84
2021/07/07 02:06:49;;;;;;;9.00;2.10;;;15.60;99.90;;;;;;5101986;28;20511;-84
2021/07/07 02:09:19;;;;;;;8.63;2.07;;;15.50;99.90;;;;;;5095234;28;20505;-84
2021/07/07 02:11:46;;;;;;;8.57;2.17;;;15.60;99.90;;;;;;5094287;28;20507;-84
2021/07/07 02:14:15;;;;;;;8.70;2.47;;;15.50;99.90;;;;;;5079111;28;20507;-84
2021/07/07 02:16:42;;;;;;;8.17;1.97;;;15.50;99.90;;;;;;5060452;28;20451;-84
2021/07/07 02:19:09;;;;;;;8.73;2.50;;;15.50;99.90;;;;;;5062098;28;20547;-84
2021/07/07 02:21:36;;;;;;;8.53;2.37;;;15.50;99.90;;;;;;5069787;28;20535;-84
2021/07/07 02:24:04;;;;;;;8.23;2.27;;;15.50;99.90;;;;;;5073047;28;20540;-84
2021/07/07 02:26:31;;;;;;;10.07;2.70;;;15.50;99.90;;;;;;5072085;28;20444;-83
2021/07/07 02:28:58;;;;;;;9.70;2.20;;;15.50;99.90;;;;;;5057583;28;20454;-84
2021/07/07 02:31:26;;;;;;;9.77;2.77;;;15.50;99.90;;;;;;5074961;28;20542;-84
2021/07/07 02:33:53;;;;;;;7.77;2.20;;;15.40;99.90;;;;;;5067171;28;21059;-84
2021/07/07 02:36:20;;;;;;;8.53;2.40;;;15.40;99.90;;;;;;5079149;28;20455;-85
2021/07/07 02:38:47;;;;;;;8.67;2.73;;;15.40;99.90;;;;;;5078549;28;20542;-84
2021/07/07 02:41:16;;;;;;;8.40;2.13;;;15.40;99.90;;;;;;5078886;28;20492;-84
2021/07/07 02:43:42;;;;;;;11.40;3.00;;;15.40;99.90;;;;;;5089161;28;20477;-85
2021/07/07 02:46:09;;;;;;;10.53;2.47;;;15.40;99.90;;;;;;5083890;28;20455;-84
2021/07/07 02:48:37;;;;;;;10.37;2.53;;;15.40;99.90;;;;;;5084581;28;20447;-84
2021/07/07 02:51:04;;;;;;;9.00;2.27;;;15.40;99.90;;;;;;5079328;28;20487;-84
2021/07/07 02:53:31;;;;;;;10.13;2.33;;;15.40;99.90;;;;;;5084024;28;20997;-84
2021/07/07 02:55:58;;;;;;;13.47;3.07;;;15.30;99.90;;;;;;5075674;28;20451;-85
2021/07/07 02:58:25;;;;;;;10.70;2.17;;;15.30;99.90;;;;;;5084612;28;20449;-85
2021/07/07 03:00:52;;;;;;;10.87;2.77;;;15.30;99.90;;;;;;5084437;28;20482;-85
2021/07/07 03:03:20;;;;;;;9.13;2.33;;;15.30;99.90;;;;;;5065892;28;20472;-85
2021/07/07 03:05:51;;;;;;;10.40;2.80;;;15.20;99.90;;;;;;5080392;28;20465;-84
2021/07/07 03:08:19;;;;;;;12.50;2.33;;;15.30;99.90;;;;;;5058069;28;20447;-84
2021/07/07 03:10:48;;;;;;;8.50;2.13;;;15.30;99.90;;;;;;5059367;28;20462;-85
2021/07/07 03:13:16;;;;;;;8.73;2.70;;;15.30;99.90;;;;;;5059982;28;20483;-85
2021/07/07 03:15:44;;;;;;;8.87;2.80;;;15.30;99.90;;;;;;5058978;28;20884;-84
2021/07/07 03:18:12;;;;;;;9.20;2.57;;;15.30;99.90;;;;;;5078462;28;21283;-84
2021/07/07 03:20:41;;;;;;;8.50;2.10;;;15.30;99.90;;;;;;5089613;28;20862;-84
2021/07/07 03:23:11;;;;;;;12.37;2.60;;;15.20;99.90;;;;;;5098462;28;20990;-83
2021/07/07 03:25:38;;;;;;;8.30;2.47;;;15.20;99.90;;;;;;5097209;28;20950;-84
2021/07/07 03:28:05;;;;;;;11.03;2.60;;;15.20;99.90;;;;;;5099258;28;20503;-84
2021/07/07 03:30:33;;;;;;;9.23;2.27;;;15.20;99.90;;;;;;5094987;28;20472;-84
2021/07/07 03:33:01;;;;;;;8.10;2.03;;;15.20;99.90;;;;;;5079966;28;20457;-84
2021/07/07 03:35:28;;;;;;;10.13;2.53;;;15.20;99.90;;;;;;5085647;28;20461;-84
2021/07/07 03:37:56;;;;;;;11.83;3.33;;;15.20;99.90;;;;;;5084354;28;20546;-84
2021/07/07 03:40:26;;;;;;;9.83;2.40;;;15.20;99.90;;;;;;5088841;28;20521;-84
2021/07/07 03:42:53;;;;;;;11.80;2.53;;;15.20;99.90;;;;;;5098625;28;20600;-85
2021/07/07 03:45:21;;;;;;;7.27;2.50;;;15.20;99.90;;;;;;5097687;28;20536;-84
2021/07/07 03:47:48;;;;;;;10.07;2.63;;;15.20;99.90;;;;;;5098290;28;20450;-84
2021/07/07 03:50:16;;;;;;;7.77;2.47;;;15.20;99.90;;;;;;5093133;28;20463;-84
2021/07/07 03:52:44;;;;;;;9.37;2.87;;;15.20;99.90;;;;;;5079606;28;20455;-84
2021/07/07 03:55:13;;;;;;;12.70;2.80;;;15.20;99.90;;;;;;5060020;28;20444;-85
2021/07/07 03:57:41;;;;;;;12.10;2.23;;;15.30;99.90;;;;;;5057802;28;20444;-84
2021/07/07 04:00:10;;;;;;;7.93;2.13;;;15.30;99.90;;;;;;5057385;28;20444;-84
2021/07/07 04:02:37;;;;;;;8.23;2.07;;;15.30;99.90;;;;;;5058540;28;20483;-84
2021/07/07 04:05:06;;;;;;;11.30;2.40;;;15.30;99.90;;;;;;5059812;28;20851;-84
2021/07/07 04:07:33;;;;;;;9.80;2.40;;;15.30;99.90;;;;;;5120439;22;20498;-83
2021/07/07 04:10:00;;;;;;;8.07;2.27;;;15.40;99.90;;;;;;5101196;28;20478;-84
2021/07/07 04:12:27;;;;;;;13.20;2.53;;;15.30;99.90;;;;;;5102776;28;20828;-84
2021/07/07 04:14:55;;;;;;;10.83;2.60;;;15.40;99.90;;;;;;5090772;28;20459;-85
2021/07/07 04:17:22;;;;;;;9.07;2.80;;;15.40;99.90;;;;;;5095404;28;20978;-86
2021/07/07 04:19:48;;;;;;;10.90;2.60;;;15.40;99.90;;;;;;5082981;28;20446;-84
2021/07/07 04:22:15;;;;;;;11.17;2.33;;;15.40;99.90;;;;;;5092349;28;20474;-83
2021/07/07 04:24:42;;;;;;;11.47;2.67;;;15.40;99.90;;;;;;5110599;28;20440;-83
2021/07/07 04:27:09;;;;;;;8.90;2.07;;;15.50;99.90;;;;;;5114260;28;20872;-83
2021/07/07 04:29:36;;;;;;;11.07;2.83;;;15.50;99.90;;;;;;5096515;28;20984;-84
2021/07/07 04:32:06;;;;;;;12.50;3.30;;;15.50;99.90;;;;;;5089006;28;20536;-85
2021/07/07 04:34:33;;;;;;;10.13;2.00;;;15.60;99.90;;;;;;5093588;28;20449;-84
2021/07/07 04:37:01;;;;;;;8.50;2.10;;;15.60;99.90;;;;;;5105664;28;20545;-84
2021/07/07 04:39:28;;;;;;;8.33;2.33;;;15.70;99.90;;;;;;5116911;28;20453;-83
2021/07/07 04:41:55;;;;;;;12.83;2.40;;;15.70;99.90;;;;;;5107966;28;20577;-84
2021/07/07 04:44:22;;;;;;;10.90;2.70;;;15.80;99.90;;;;;;5106128;28;20552;-84
2021/07/07 04:46:49;;;;;;;9.77;2.30;;;15.80;99.90;;;;;;5105195;28;20476;-84
2021/07/07 04:49:17;;;;;;;7.80;2.30;;;15.90;99.90;;;;;;5103746;28;20476;-85
2021/07/07 04:51:44;;;;;;;10.90;2.20;;;16.00;99.90;;;;;;5116470;28;20520;-85
2021/07/07 04:54:10;;;;;;;9.10;2.73;;;16.10;99.90;;;;;;5128044;28;20544;-84
2021/07/07 04:56:37;;;;;;;12.07;3.10;;;16.20;99.90;;;;;;5102262;28;20854;-85
2021/07/07 04:59:04;;;;;;;8.83;2.83;;;16.20;99.90;;;;;;5094339;28;20470;-84
2021/07/07 05:01:31;;;;;;;10.50;2.67;;;16.40;99.90;;;;;;5091816;28;20510;-85
2021/07/07 05:03:58;;;;;;;7.43;2.30;;;16.40;99.90;;;;;;5089294;28;20518;-82
2021/07/07 05:06:26;;;;;;;9.63;2.27;;;16.50;99.90;;;;;;5101862;28;20476;-84
2021/07/07 05:08:53;;;;;;;12.20;2.20;;;16.50;99.90;;;;;;5103335;28;20993;-82
2021/07/07 05:11:20;;;;;;;12.73;2.20;;;16.60;99.90;;;;;;5099874;28;20451;-85
2021/07/07 05:13:47;;;;;;;11.37;2.83;;;16.60;99.90;;;;;;5099562;28;21009;-86
2021/07/07 05:16:14;;;;;;;8.60;2.70;;;16.70;99.90;;;;;;5097324;28;20454;-87
2021/07/07 05:18:41;;;;;;;8.60;2.30;;;16.80;99.90;;;;;;5091050;28;20475;-87
2021/07/07 05:21:10;;;;;;;14.40;2.90;;;16.90;99.90;;;;;;5079793;28;20546;-86
2021/07/07 05:23:41;;;;;;;8.70;2.00;;;17.00;99.90;;;;;;5091835;28;20462;-85
2021/07/07 05:26:11;;;;;;;9.90;2.23;;;17.10;99.90;;;;;;5089206;28;20451;-85
2021/07/07 05:28:38;;;;;;;9.90;2.17;;;17.20;99.90;;;;;;5074423;28;21014;-85
2021/07/07 05:31:10;;;;;;;12.40;2.50;;;17.30;99.90;;;;;;5090522;28;20439;-85
2021/07/07 05:33:37;;;;;;;10.80;2.23;;;17.40;99.90;;;;;;5089371;28;20534;-86
2021/07/07 05:36:06;;;;;;;11.40;2.67;;;17.40;99.90;;;;;;5075681;28;20485;-85
2021/07/07 05:38:33;;;;;;;10.20;3.43;;;17.60;99.90;;;;;;5074421;28;20467;-85
2021/07/07 05:41:02;;;;;;;8.93;1.97;;;17.70;99.90;;;;;;5074308;28;20494;-86
2021/07/07 05:43:30;;;;;;;9.40;2.07;;;17.80;99.90;;;;;;5074782;28;20545;-86
2021/07/07 05:45:59;;;;;;;11.20;2.60;;;18.00;99.90;;;;;;5078418;28;20806;-86
2021/07/07 05:48:27;;;;;;;12.10;2.50;;;18.10;99.90;;;;;;5082235;28;20474;-86
2021/07/07 05:50:55;;;;;;;10.63;2.33;;;18.30;99.90;;;;;;5096246;28;20446;-85
2021/07/07 05:53:23;;;;;;;10.23;3.03;;;18.30;99.90;;;;;;5091210;28;20475;-85
2021/07/07 05:55:51;;;;;;;11.10;2.33;;;18.40;99.90;;;;;;5075906;28;20481;-86
2021/07/07 05:58:19;;;;;;;10.77;3.47;;;18.50;99.90;;;;;;5079499;28;20582;-86
2021/07/07 06:00:46;;;;;;;10.00;2.23;;;18.60;99.90;;;;;;5117239;28;20806;-86
2021/07/07 06:03:13;;;;;;;10.37;2.40;;;18.70;99.90;;;;;;5116315;28;21099;-86
2021/07/07 06:05:41;;;;;;;11.63;2.43;;;18.70;99.90;;;;;;5116453;28;20510;-85
2021/07/07 06:08:08;;;;;;;10.93;2.90;;;18.80;99.90;;;;;;5119279;28;20508;-85
2021/07/07 06:10:35;;;;;;;10.63;2.07;;;18.90;99.90;;;;;;5121375;28;20448;-84
2021/07/07 06:13:03;;;;;;;12.73;2.00;;;18.90;99.90;;;;;;5129030;28;20480;-86
2021/07/07 06:15:33;;;;;;;10.23;2.40;;;18.90;99.90;;;;;;5130241;28;20493;-86
2021/07/07 06:18:00;;;;;;;11.53;2.20;;;18.90;99.90;;;;;;5124040;28;20473;-86
2021/07/07 06:20:27;;;;;;;15.27;2.30;;;18.90;99.90;;;;;;5119934;28;20475;-85
2021/07/07 06:22:54;;;;;;;11.80;2.33;;;19.00;99.90;;;;;;5118149;28;20583;-86
2021/07/07 06:25:21;;;;;;;11.63;2.23;;;19.10;99.90;;;;;;5116163;28;20445;-86
2021/07/07 06:27:48;;;;;;;9.40;1.90;;;19.20;99.90;;;;;;5116531;28;20525;-86
2021/07/07 06:30:17;;;;;;;11.73;2.13;;;19.40;99.90;;;;;;5099990;28;20453;-85
2021/07/07 06:32:46;;;;;;;12.13;1.97;;;19.50;99.90;;;;;;5102464;28;20553;-85
2021/07/07 06:35:14;;;;;;;10.47;2.00;;;19.70;99.90;;;;;;5101074;28;20529;-85
2021/07/07 06:37:41;;;;;;;12.97;2.10;;;19.90;99.90;;;;;;5100325;28;20534;-86
2021/07/07 06:40:09;;;;;;;13.17;2.10;;;20.00;99.90;;;;;;5098341;28;20496;-86
2021/07/07 06:42:36;;;;;;;13.77;2.63;;;20.10;99.90;;;;;;5097052;28;21062;-84
2021/07/07 06:45:06;;;;;;;17.90;2.63;;;20.20;99.90;;;;;;5105691;28;20449;-85
2021/07/07 06:47:33;;;;;;;12.73;2.93;;;20.20;99.90;;;;;;5121107;28;20509;-84
2021/07/07 06:50:01;;;;;;;22.13;4.13;;;20.40;99.90;;;;;;5121317;28;20517;-84
2021/07/07 06:52:28;;;;;;;12.27;2.77;;;20.50;99.90;;;;;;5119476;28;20445;-85
2021/07/07 06:54:55;;;;;;;12.43;2.57;;;20.50;99.90;;;;;;5109324;28;20533;-84
2021/07/07 06:57:22;;;;;;;11.53;2.00;;;20.70;99.90;;;;;;5100544;28;20481;-85
2021/07/07 06:59:49;;;;;;;13.90;1.77;;;20.80;99.90;;;;;;5101119;28;20465;-84
2021/07/07 07:02:16;;;;;;;11.90;2.03;;;20.70;99.90;;;;;;5111257;28;20476;-83
2021/07/07 07:04:43;;;;;;;12.53;2.00;;;20.80;99.90;;;;;;5101280;28;20453;-84
2021/07/07 07:07:12;;;;;;;14.80;1.87;;;20.80;99.90;;;;;;5098340;28;20472;-85
2021/07/07 07:09:38;;;;;;;12.83;2.77;;;20.80;99.90;;;;;;5099450;28;20457;-83
2021/07/07 07:12:06;;;;;;;12.17;2.30;;;20.70;99.90;;;;;;5099889;28;20656;-84
2021/07/07 07:14:32;;;;;;;11.60;2.10;;;20.70;99.90;;;;;;5101559;28;20834;-84
2021/07/07 07:16:59;;;;;;;11.40;1.60;;;20.60;99.90;;;;;;5120256;28;20547;-85
2021/07/07 07:19:26;;;;;;;15.83;2.47;;;20.70;99.90;;;;;;5121926;28;20509;-85
2021/07/07 07:21:53;;;;;;;11.40;1.90;;;20.80;99.90;;;;;;5105031;28;20482;-85
2021/07/07 07:24:21;;;;;;;12.30;2.20;;;20.90;99.90;;;;;;5100267;28;20910;-85
2021/07/07 07:26:48;;;;;;;13.90;2.37;;;21.00;99.90;;;;;;5100367;28;20481;-83
2021/07/07 07:29:15;;;;;;;16.60;1.77;;;21.10;99.90;;;;;;5105911;28;20497;-84
2021/07/07 07:31:42;;;;;;;14.67;2.33;;;21.10;99.90;;;;;;5098989;28;20446;-84
2021/07/07 07:34:08;;;;;;;17.47;2.30;;;21.00;99.90;;;;;;5106799;28;20500;-84
2021/07/07 07:36:35;;;;;;;14.20;1.70;;;20.90;99.90;;;;;;5079957;28;20485;-85
2021/07/07 07:39:04;;;;;;;23.70;2.47;;;20.70;99.90;;;;;;5077403;28;20557;-84
2021/07/07 07:41:38;;;;;;;14.10;2.20;;;20.80;99.90;;;;;;5089835;28;20446;-83
2021/07/07 07:44:07;;;;;;;14.50;2.10;;;20.90;99.90;;;;;;5106982;28;20453;-84
2021/07/07 07:46:34;;;;;;;17.70;2.30;;;21.00;99.90;;;;;;5095641;28;20527;-82
2021/07/07 07:49:01;;;;;;;20.20;2.20;;;21.00;99.90;;;;;;5094705;28;20371;-81
2021/07/07 07:51:28;;;;;;;17.93;2.70;;;21.10;99.90;;;;;;5087861;28;20517;-83
2021/07/07 07:53:55;;;;;;;20.67;1.63;;;21.10;99.90;;;;;;5075854;28;20454;-82
2021/07/07 07:56:22;;;;;;;16.33;2.37;;;21.30;99.90;;;;;;5074594;28;20486;-80
2021/07/07 07:58:50;;;;;;;21.37;2.30;;;21.40;99.90;;;;;;5074481;28;20479;-82
2021/07/07 08:01:17;;;;;;;21.27;2.97;;;21.40;99.90;;;;;;5097448;28;20455;-82
2021/07/07 08:03:44;;;;;;;13.40;1.67;;;21.40;99.90;;;;;;5098928;28;20486;-82
2021/07/07 08:06:11;;;;;;;17.60;2.10;;;21.40;99.90;;;;;;5102613;28;20465;-82
2021/07/07 08:08:38;;;;;;;15.47;1.90;;;21.40;99.90;;;;;;5110696;28;20473;-83
2021/07/07 08:11:05;;;;;;;14.60;2.27;;;21.40;99.90;;;;;;5084462;28;20519;-82
2021/07/07 08:13:32;;;;;;;17.33;3.00;;;21.70;99.90;;;;;;5093817;28;20452;-81
2021/07/07 08:16:02;;;;;;;17.40;2.07;;;21.70;99.90;;;;;;5105044;28;20461;-83
2021/07/07 08:18:29;;;;;;;18.57;2.37;;;21.80;99.90;;;;;;5096562;28;20469;-83
2021/07/07 08:20:56;;;;;;;22.10;1.97;;;21.90;99.90;;;;;;5095009;28;20454;-82
2021/07/07 08:23:23;;;;;;;17.83;2.10;;;22.00;99.90;;;;;;5096207;28;20516;-82
2021/07/07 08:25:52;;;;;;;19.20;2.20;;;22.10;99.90;;;;;;5091232;28;20971;-82
2021/07/07 08:28:21;;;;;;;31.60;3.87;;;22.20;99.90;;;;;;5100891;28;20480;-82
2021/07/07 08:30:48;;;;;;;24.87;2.50;;;22.10;99.90;;;;;;5097191;28;20450;-83
2021/07/07 08:33:17;;;;;;;27.20;2.67;;;22.30;99.90;;;;;;5100501;28;20474;-83
2021/07/07 08:35:45;;;;;;;25.80;2.20;;;22.50;99.90;;;;;;5100995;28;20444;-82
2021/07/07 08:38:12;;;;;;;32.83;3.57;;;22.60;99.90;;;;;;5111190;28;20482;-82
2021/07/07 08:40:39;;;;;;;23.13;2.10;;;22.80;99.90;;;;;;5101909;28;20800;-83
2021/07/07 08:43:06;;;;;;;22.90;2.03;;;22.90;99.90;;;;;;5081005;28;20581;-83
2021/07/07 08:45:33;;;;;;;40.27;2.93;;;23.00;99.90;;;;;;5081744;28;20427;-83
2021/07/07 08:48:01;;;;;;;28.20;2.40;;;23.20;99.90;;;;;;5080799;28;20489;-82
2021/07/07 08:50:33;;;;;;;40.87;5.20;;;23.20;99.90;;;;;;5095209;28;20489;-81
2021/07/07 08:53:01;;;;;;;420.30;395.30;;;23.40;99.90;;;;;;5099539;28;20453;-82
2021/07/07 08:55:29;;;;;;;1999.90;999.90;;;23.50;99.90;;;;;;5095974;28;20468;-80
2021/07/07 08:57:56;;;;;;;1999.90;999.90;;;23.50;99.90;;;;;;5097009;28;20466;-81
2021/07/07 09:00:30;;;;;;;1999.90;999.90;;;23.50;99.90;;;;;;5096696;28;20509;-81
2021/07/07 09:02:59;;;;;;;1999.90;999.90;;;23.70;99.90;;;;;;5108130;28;20550;-81
2021/07/07 09:05:29;;;;;;;1999.90;999.90;;;24.10;99.90;;;;;;5104761;28;20474;-81
2021/07/07 09:08:04;;;;;;;1999.90;999.90;;;24.20;99.90;;;;;;5104789;28;20489;-80
2021/07/07 09:10:34;;;;;;;1999.90;999.90;;;24.10;99.90;;;;;;5092980;28;20488;-79
2021/07/07 09:13:13;;;;;;;1999.90;999.90;;;24.20;99.90;;;;;;5097652;28;20525;-83
2021/07/07 09:15:43;;;;;;;1999.90;999.90;;;24.40;99.90;;;;;;5093808;28;20538;-82
2021/07/07 09:18:22;;;;;;;1999.90;999.90;;;24.60;99.90;;;;;;5097291;28;20466;-83
2021/07/07 09:20:51;;;;;;;1999.90;999.90;;;24.90;99.90;;;;;;5095511;28;20457;-83
2021/07/07 09:23:20;;;;;;;1999.90;999.90;;;25.20;99.90;;;;;;5086719;28;20487;-81
2021/07/07 09:25:57;;;;;;;1999.90;999.90;;;25.20;99.90;;;;;;5089386;28;20439;-81
2021/07/07 09:28:26;;;;;;;1999.90;999.90;;;25.40;99.90;;;;;;5090193;28;20467;-83
2021/07/07 09:30:55;;;;;;;1999.90;999.90;;;25.60;99.90;;;;;;5078653;28;20457;-81
2021/07/07 09:33:22;;;;;;;1999.90;999.90;;;25.70;99.90;;;;;;5108870;28;20532;-82
2021/07/07 09:35:51;;;;;;;1999.90;999.90;;;25.70;99.90;;;;;;5117934;28;20485;-83
2021/07/07 09:38:18;;;;;;;1999.90;999.90;;;25.40;99.90;;;;;;5102810;28;20496;-83
2021/07/07 09:40:46;;;;;;;1999.90;999.90;;;25.10;99.90;;;;;;5089436;28;20442;-84
2021/07/07 09:43:14;;;;;;;1999.90;999.90;;;25.00;99.90;;;;;;5099605;28;20474;-83
2021/07/07 09:45:46;;;;;;;1999.90;999.90;;;24.90;99.90;;;;;;5083760;28;20518;-85
2021/07/07 09:48:14;;;;;;;1999.90;999.90;;;24.90;99.90;;;;;;5080765;28;20578;-82
2021/07/07 09:50:43;;;;;;;1999.90;999.90;;;24.90;99.90;;;;;;5080416;28;20447;-82
2021/07/07 09:53:14;;;;;;;1999.90;999.90;;;24.90;99.90;;;;;;5104796;28;20498;-84
2021/07/07 09:55:43;;;;;;;1999.90;999.90;;;25.10;99.90;;;;;;5099402;28;20438;-82
2021/07/07 09:58:10;;;;;;;1999.90;999.90;;;25.40;99.90;;;;;;5098893;28;20470;-83
2021/07/07 10:00:38;;;;;;;1999.90;999.90;;;26.00;99.90;;;;;;5109168;28;20437;-84
2021/07/07 10:03:06;;;;;;;1999.90;999.90;;;26.30;99.90;;;;;;5122008;28;20485;-83
2021/07/07 10:05:39;;;;;;;1999.90;999.90;;;26.20;99.90;;;;;;5088588;28;20454;-83
2021/07/07 10:08:07;;;;;;;1999.90;999.90;;;26.20;99.90;;;;;;5100980;28;20477;-82
2021/07/07 10:10:37;;;;;;;1999.90;999.90;;;25.80;99.90;;;;;;5104795;28;20514;-82
2021/07/07 10:13:05;;;;;;;1999.90;999.90;;;25.60;99.90;;;;;;5099260;28;20442;-83
2021/07/07 10:15:32;;;;;;;1999.90;999.90;;;25.30;99.90;;;;;;5100817;28;20453;-83
2021/07/07 10:17:59;;;;;;;1999.90;999.90;;;24.90;99.90;;;;;;5097361;28;20557;-83
2021/07/07 10:20:27;;;;;;;1999.90;999.90;;;24.60;99.90;;;;;;5097222;22;20475;-85
2021/07/07 10:22:56;;;;;;;1999.90;999.90;;;24.50;99.90;;;;;;5063339;28;20486;-84
2021/07/07 10:25:25;;;;;;;1999.90;999.90;;;24.10;99.90;;;;;;5071090;28;20558;-84
2021/07/07 10:27:56;;;;;;;1999.90;999.90;;;24.00;99.90;;;;;;5087358;28;20476;-85
2021/07/07 10:30:54;;;;;;;956.13;600.57;;;24.00;99.90;;;;;;5069237;28;20482;-82
2021/07/07 10:33:23;;;;;;;644.23;604.93;;;23.90;99.90;;;;;;5070401;28;20436;-84
2021/07/07 10:35:50;;;;;;;1378.20;696.37;;;23.90;99.90;;;;;;5069474;28;20515;-84
2021/07/07 10:38:17;;;;;;;1999.90;999.90;;;24.10;99.90;;;;;;5067197;28;20474;-84
2021/07/07 10:40:51;;;;;;;1999.90;999.90;;;24.40;99.90;;;;;;5060727;28;20468;-84
2021/07/07 10:43:28;;;;;;;689.70;650.27;;;24.60;99.90;;;;;;5061179;28;20543;-84
2021/07/07 10:45:55;;;;;;;619.77;581.17;;;24.60;99.90;;;;;;5055742;28;20952;-85
2021/07/07 10:48:30;;;;;;;631.90;594.70;;;24.70;99.90;;;;;;5058159;28;20889;-85
2021/07/07 10:51:00;;;;;;;1999.90;999.90;;;24.70;99.90;;;;;;5058219;28;20566;-85
2021/07/07 10:53:30;;;;;;;749.20;703.17;;;24.80;99.90;;;;;;5061229;28;20507;-81
2021/07/07 10:55:59;;;;;;;628.00;591.30;;;24.70;99.90;;;;;;5063029;28;20546;-84
2021/07/07 10:58:30;;;;;;;747.13;704.03;;;24.80;99.90;;;;;;5060139;28;20444;-84
2021/07/07 11:00:58;;;;;;;585.93;552.77;;;24.90;99.90;;;;;;5053921;28;20518;-84
2021/07/07 11:03:34;;;;;;;663.37;626.47;;;25.00;99.90;;;;;;5055172;28;20511;-84
2021/07/07 11:06:25;;;;;;;625.63;591.23;;;25.00;99.90;;;;;;5057572;28;20458;-84
2021/07/07 11:08:57;;;;;;;647.13;610.13;;;24.70;99.90;;;;;;5061405;28;20516;-84
2021/07/07 11:11:27;;;;;;;685.00;639.63;;;24.50;99.90;;;;;;5059267;28;20472;-84
2021/07/07 11:13:55;;;;;;;730.53;688.83;;;24.70;99.90;;;;;;5061771;28;20463;-85
2021/07/07 11:16:24;;;;;;;688.67;649.87;;;25.10;99.90;;;;;;5068718;28;20455;-84
2021/07/07 11:18:51;;;;;;;621.50;587.27;;;25.30;99.90;;;;;;5073034;28;20432;-84
2021/07/07 11:21:20;;;;;;;575.70;544.73;;;25.20;99.90;;;;;;5072383;28;20482;-84
2021/07/07 11:23:49;;;;;;;634.33;599.67;;;25.20;99.90;;;;;;5073859;28;20496;-84
2021/07/07 11:26:17;;;;;;;688.70;649.50;;;24.90;99.90;;;;;;5073479;28;20503;-83
2021/07/07 11:28:44;;;;;;;619.10;584.67;;;25.00;99.90;;;;;;5070064;28;20515;-84
2021/07/07 11:31:12;;;;;;;567.97;537.60;;;24.90;99.90;;;;;;5071485;28;20532;-83
2021/07/07 11:33:39;;;;;;;616.37;582.00;;;25.10;99.90;;;;;;5075990;28;20538;-82
2021/07/07 11:36:06;;;;;;;773.73;726.80;;;25.70;99.90;;;;;;5072621;28;20428;-84
2021/07/07 11:38:33;;;;;;;692.60;653.37;;;26.70;99.90;;;;;;5071121;28;20479;-81
2021/07/07 11:41:00;;;;;;;1999.90;999.90;;;27.20;99.90;;;;;;5064469;28;20931;-84
2021/07/07 11:43:30;;;;;;;845.83;783.93;;;27.90;99.90;;;;;;5072803;28;20482;-83
2021/07/07 11:46:00;;;;;;;1999.90;999.90;;;27.80;99.90;;;;;;5068598;28;20491;-85
2021/07/07 11:48:34;;;;;;;1999.90;999.90;;;27.80;99.90;;;;;;5058971;28;20452;-85
2021/07/07 11:51:05;;;;;;;1999.90;999.90;;;27.60;99.90;;;;;;5053778;28;20524;-85
2021/07/07 11:53:38;;;;;;;183.70;161.37;;;27.70;99.90;;;;;;5060680;28;20444;-82
2021/07/07 11:56:07;;;;;;;1999.90;999.90;;;27.90;99.90;;;;;;5069321;28;20542;-86
2021/07/07 11:58:36;;;;;;;764.00;716.63;;;28.00;99.90;;;;;;5059115;28;20527;-84
2021/07/07 12:01:07;;;;;;;293.53;272.00;;;27.70;99.90;;;;;;5043482;28;20486;-85
2021/07/07 12:03:36;;;;;;;1379.13;706.97;;;27.10;99.90;;;;;;5058698;28;20480;-86
2021/07/07 12:06:05;;;;;;;525.60;497.40;;;26.50;99.90;;;;;;5073831;28;20458;-86
2021/07/07 12:08:39;;;;;;;865.80;812.10;;;26.70;99.90;;;;;;5063313;28;20453;-85
2021/07/07 12:11:12;;;;;;;686.53;648.13;;;27.30;99.90;;;;;;5058192;28;20483;-85
2021/07/07 12:13:40;;;;;;;808.37;760.67;;;28.00;99.90;;;;;;5075009;28;20457;-86
2021/07/07 12:16:19;;;;;;;1999.90;999.90;;;28.90;99.90;;;;;;5060799;28;21002;-86
2021/07/07 12:18:49;;;;;;;1999.90;999.90;;;29.50;99.90;;;;;;5055520;28;20444;-87
2021/07/07 12:21:44;;;;;;;1999.90;999.90;;;29.70;99.90;;;;;;5071906;28;20485;-85
2021/07/07 12:24:13;;;;;;;1999.90;999.90;;;29.40;99.90;;;;;;5043633;28;20484;-83
2021/07/07 12:26:42;;;;;;;1110.70;741.20;;;29.30;99.90;;;;;;5042635;28;20453;-85
2021/07/07 12:29:18;;;;;;;188.17;153.13;;;29.70;99.90;;;;;;5042148;28;20520;-85
2021/07/07 12:31:46;;;;;;;311.57;287.53;;;30.60;99.90;;;;;;5043845;28;20460;-87
2021/07/07 12:34:18;;;;;;;49.10;25.13;;;31.40;99.90;;;;;;5048671;28;20456;-87